Terminal Aerodrome Forecast
Issued by NWS

Home | Current Version | Previous Version | Text Only | Print | Product List | Glossary On
Versions: 1 2 3 4 5 6 7 8 9 10 11 12 13 14 15 16 17 18 19 20 21 22 23 24 25
000
FTUS46 KSGX 281720
TAFSAN
TAF
KSAN 281720Z 2818/2924 27008KT P6SM SKC
     FM290200 VRB04KT P6SM FEW008
     FM291000 17003KT 5SM BR BKN006
     FM291600 VRB05KT P6SM SCT008
     FM291900 29010KT P6SM FEW010=

USA.gov is the U.S. government's official web portal to all federal, state and local government web resources and services.